sensor_id;sensor_type;location;lat;lon;timestamp;temperature;humidity
65378;SHT31;51982;51.042;13.806;2023-04-01T00:02:06;13.23;80.35
65378;SHT31;51982;51.042;13.806;2023-04-01T00:04:31;13.17;80.76
65378;SHT31;51982;51.042;13.806;2023-04-01T00:06:57;13.24;81.01
65378;SHT31;51982;51.042;13.806;2023-04-01T00:09:22;13.23;81.09
65378;SHT31;51982;51.042;13.806;2023-04-01T00:11:47;13.14;81.70
65378;SHT31;51982;51.042;13.806;2023-04-01T00:14:13;13.14;82.05
65378;SHT31;51982;51.042;13.806;2023-04-01T00:16:38;13.17;81.86
65378;SHT31;51982;51.042;13.806;2023-04-01T00:19:03;13.16;81.78
65378;SHT31;51982;51.042;13.806;2023-04-01T00:21:29;13.06;81.92
65378;SHT31;51982;51.042;13.806;2023-04-01T00:23:54;13.02;81.91
65378;SHT31;51982;51.042;13.806;2023-04-01T00:26:20;13.04;81.87
65378;SHT31;51982;51.042;13.806;2023-04-01T00:28:47;13.10;81.68
65378;SHT31;51982;51.042;13.806;2023-04-01T00:31:13;13.10;81.68
65378;SHT31;51982;51.042;13.806;2023-04-01T00:33:39;13.10;81.47
65378;SHT31;51982;51.042;13.806;2023-04-01T00:36:17;13.07;81.49
65378;SHT31;51982;51.042;13.806;2023-04-01T00:38:43;13.10;81.51
65378;SHT31;51982;51.042;13.806;2023-04-01T00:41:10;13.14;81.47
65378;SHT31;51982;51.042;13.806;2023-04-01T00:43:44;13.11;81.39
65378;SHT31;51982;51.042;13.806;2023-04-01T00:46:10;13.04;81.39
65378;SHT31;51982;51.042;13.806;2023-04-01T00:48:38;13.07;81.47
65378;SHT31;51982;51.042;13.806;2023-04-01T00:51:07;13.04;81.52
65378;SHT31;51982;51.042;13.806;2023-04-01T00:53:38;13.07;81.57
65378;SHT31;51982;51.042;13.806;2023-04-01T00:56:10;13.04;81.63
65378;SHT31;51982;51.042;13.806;2023-04-01T00:58:41;13.00;81.66
65378;SHT31;51982;51.042;13.806;2023-04-01T01:01:09;13.03;81.76
65378;SHT31;51982;51.042;13.806;2023-04-01T01:03:35;13.07;81.83
65378;SHT31;51982;51.042;13.806;2023-04-01T01:06:28;13.03;81.82
65378;SHT31;51982;51.042;13.806;2023-04-01T01:11:32;13.00;81.81
65378;SHT31;51982;51.042;13.806;2023-04-01T01:14:13;13.02;81.92
65378;SHT31;51982;51.042;13.806;2023-04-01T01:16:47;13.02;81.93
65378;SHT31;51982;51.042;13.806;2023-04-01T01:22:36;12.95;81.65
65378;SHT31;51982;51.042;13.806;2023-04-01T01:25:18;12.92;81.78
65378;SHT31;51982;51.042;13.806;2023-04-01T01:27:56;12.93;81.49
65378;SHT31;51982;51.042;13.806;2023-04-01T01:30:35;12.89;81.07
65378;SHT31;51982;51.042;13.806;2023-04-01T01:33:20;12.92;81.18
65378;SHT31;51982;51.042;13.806;2023-04-01T01:35:51;12.96;81.21
65378;SHT31;51982;51.042;13.806;2023-04-01T01:38:24;12.97;81.16
65378;SHT31;51982;51.042;13.806;2023-04-01T01:40:52;12.97;81.10
65378;SHT31;51982;51.042;13.806;2023-04-01T01:43:22;12.96;81.09
65378;SHT31;51982;51.042;13.806;2023-04-01T01:45:51;12.96;81.10
65378;SHT31;51982;51.042;13.806;2023-04-01T01:48:18;12.96;81.06
65378;SHT31;51982;51.042;13.806;2023-04-01T01:50:45;12.93;80.79
65378;SHT31;51982;51.042;13.806;2023-04-01T01:53:12;12.93;80.93
65378;SHT31;51982;51.042;13.806;2023-04-01T01:55:41;12.89;80.99
65378;SHT31;51982;51.042;13.806;2023-04-01T01:58:38;12.92;80.92
65378;SHT31;51982;51.042;13.806;2023-04-01T02:01:14;12.92;80.91
65378;SHT31;51982;51.042;13.806;2023-04-01T02:03:42;12.96;80.74
65378;SHT31;51982;51.042;13.806;2023-04-01T02:06:11;12.95;80.82
65378;SHT31;51982;51.042;13.806;2023-04-01T02:08:45;12.95;80.82
65378;SHT31;51982;51.042;13.806;2023-04-01T02:38:48;12.89;80.34
65378;SHT31;51982;51.042;13.806;2023-04-01T02:41:17;12.86;80.46
65378;SHT31;51982;51.042;13.806;2023-04-01T02:43:42;12.85;80.36
65378;SHT31;51982;51.042;13.806;2023-04-01T02:46:07;12.87;80.57
65378;SHT31;51982;51.042;13.806;2023-04-01T02:48:33;12.86;80.45
65378;SHT31;51982;51.042;13.806;2023-04-01T02:51:00;12.87;80.37
65378;SHT31;51982;51.042;13.806;2023-04-01T02:53:26;12.92;80.24
65378;SHT31;51982;51.042;13.806;2023-04-01T02:55:51;12.89;80.29
65378;SHT31;51982;51.042;13.806;2023-04-01T02:58:17;12.85;80.28
65378;SHT31;51982;51.042;13.806;2023-04-01T03:00:43;12.90;80.34
65378;SHT31;51982;51.042;13.806;2023-04-01T03:03:09;12.92;80.25
65378;SHT31;51982;51.042;13.806;2023-04-01T03:05:34;12.90;80.25
65378;SHT31;51982;51.042;13.806;2023-04-01T03:07:59;12.95;80.04
65378;SHT31;51982;51.042;13.806;2023-04-01T03:10:25;12.96;80.07
65378;SHT31;51982;51.042;13.806;2023-04-01T03:12:50;12.97;80.02
65378;SHT31;51982;51.042;13.806;2023-04-01T03:15:15;12.97;79.98
65378;SHT31;51982;51.042;13.806;2023-04-01T03:17:41;12.99;79.99
65378;SHT31;51982;51.042;13.806;2023-04-01T03:20:08;12.96;79.98
65378;SHT31;51982;51.042;13.806;2023-04-01T03:22:34;12.95;80.01
65378;SHT31;51982;51.042;13.806;2023-04-01T03:25:00;12.95;79.93
65378;SHT31;51982;51.042;13.806;2023-04-01T03:27:26;12.99;79.85
65378;SHT31;51982;51.042;13.806;2023-04-01T03:29:51;12.92;79.83
65378;SHT31;51982;51.042;13.806;2023-04-01T03:32:16;12.89;79.85
65378;SHT31;51982;51.042;13.806;2023-04-01T03:34:41;12.90;79.87
65378;SHT31;51982;51.042;13.806;2023-04-01T03:37:07;12.95;79.86
65378;SHT31;51982;51.042;13.806;2023-04-01T03:39:32;12.97;79.75
65378;SHT31;51982;51.042;13.806;2023-04-01T03:41:57;12.99;79.68
65378;SHT31;51982;51.042;13.806;2023-04-01T03:44:22;12.96;79.76
65378;SHT31;51982;51.042;13.806;2023-04-01T03:46:47;12.96;79.62
65378;SHT31;51982;51.042;13.806;2023-04-01T04:06:25;12.93;79.44
65378;SHT31;51982;51.042;13.806;2023-04-01T04:08:50;12.93;79.29
65378;SHT31;51982;51.042;13.806;2023-04-01T04:11:16;12.95;79.36
65378;SHT31;51982;51.042;13.806;2023-04-01T04:13:42;12.95;79.38
65378;SHT31;51982;51.042;13.806;2023-04-01T04:16:09;12.92;79.37
65378;SHT31;51982;51.042;13.806;2023-04-01T04:18:35;12.93;79.25
65378;SHT31;51982;51.042;13.806;2023-04-01T04:21:00;12.95;79.21
65378;SHT31;51982;51.042;13.806;2023-04-01T04:23:25;12.99;79.08
65378;SHT31;51982;51.042;13.806;2023-04-01T04:26:05;12.96;78.96
65378;SHT31;51982;51.042;13.806;2023-04-01T04:28:31;13.02;78.97
65378;SHT31;51982;51.042;13.806;2023-04-01T04:30:57;12.95;79.00
65378;SHT31;51982;51.042;13.806;2023-04-01T04:33:23;12.97;79.09
65378;SHT31;51982;51.042;13.806;2023-04-01T04:35:49;12.95;78.87
65378;SHT31;51982;51.042;13.806;2023-04-01T04:38:14;12.95;78.94
65378;SHT31;51982;51.042;13.806;2023-04-01T04:40:41;12.93;78.72
65378;SHT31;51982;51.042;13.806;2023-04-01T04:43:07;12.99;78.84
65378;SHT31;51982;51.042;13.806;2023-04-01T04:45:34;12.97;78.68
65378;SHT31;51982;51.042;13.806;2023-04-01T04:47:59;12.96;78.77
65378;SHT31;51982;51.042;13.806;2023-04-01T04:50:24;12.93;78.61
65378;SHT31;51982;51.042;13.806;2023-04-01T04:52:50;12.97;78.55
65378;SHT31;51982;51.042;13.806;2023-04-01T04:55:16;12.97;78.64
65378;SHT31;51982;51.042;13.806;2023-04-01T04:57:41;12.97;78.69
65378;SHT31;51982;51.042;13.806;2023-04-01T05:00:07;13.02;78.47
65378;SHT31;51982;51.042;13.806;2023-04-01T05:02:33;13.00;78.26
65378;SHT31;51982;51.042;13.806;2023-04-01T05:04:58;13.03;78.40
65378;SHT31;51982;51.042;13.806;2023-04-01T05:07:23;13.03;78.38
65378;SHT31;51982;51.042;13.806;2023-04-01T05:09:48;13.02;78.30
65378;SHT31;51982;51.042;13.806;2023-04-01T05:12:14;13.03;78.17
65378;SHT31;51982;51.042;13.806;2023-04-01T05:14:39;12.99;78.32
65378;SHT31;51982;51.042;13.806;2023-04-01T05:17:09;13.00;78.34
65378;SHT31;51982;51.042;13.806;2023-04-01T05:19:34;12.99;78.25
65378;SHT31;51982;51.042;13.806;2023-04-01T05:22:00;13.03;78.36
65378;SHT31;51982;51.042;13.806;2023-04-01T05:24:25;13.00;78.31
65378;SHT31;51982;51.042;13.806;2023-04-01T05:26:50;13.02;78.39
65378;SHT31;51982;51.042;13.806;2023-04-01T05:29:15;13.04;78.31
65378;SHT31;51982;51.042;13.806;2023-04-01T05:31:40;13.02;78.40
65378;SHT31;51982;51.042;13.806;2023-04-01T05:34:06;13.00;78.44
65378;SHT31;51982;51.042;13.806;2023-04-01T05:36:31;13.02;78.41
65378;SHT31;51982;51.042;13.806;2023-04-01T05:38:56;13.00;78.59
65378;SHT31;51982;51.042;13.806;2023-04-01T05:41:22;12.95;78.60
65378;SHT31;51982;51.042;13.806;2023-04-01T05:43:47;12.95;78.50
65378;SHT31;51982;51.042;13.806;2023-04-01T05:46:12;12.97;78.64
65378;SHT31;51982;51.042;13.806;2023-04-01T05:48:37;13.02;78.73
65378;SHT31;51982;51.042;13.806;2023-04-01T05:51:03;13.00;78.60
65378;SHT31;51982;51.042;13.806;2023-04-01T05:53:29;13.07;78.76
65378;SHT31;51982;51.042;13.806;2023-04-01T05:55:54;13.07;78.58
65378;SHT31;51982;51.042;13.806;2023-04-01T05:58:19;13.04;78.79
65378;SHT31;51982;51.042;13.806;2023-04-01T06:00:44;13.07;78.70
65378;SHT31;51982;51.042;13.806;2023-04-01T06:03:10;13.10;78.67
65378;SHT31;51982;51.042;13.806;2023-04-01T06:05:42;13.10;78.92
65378;SHT31;51982;51.042;13.806;2023-04-01T06:08:13;13.04;78.72
65378;SHT31;51982;51.042;13.806;2023-04-01T06:14:22;12.99;79.16
65378;SHT31;51982;51.042;13.806;2023-04-01T06:17:03;13.02;79.28
65378;SHT31;51982;51.042;13.806;2023-04-01T06:19:56;13.04;79.60
65378;SHT31;51982;51.042;13.806;2023-04-01T06:22:40;13.11;79.59
65378;SHT31;51982;51.042;13.806;2023-04-01T06:25:23;13.11;79.50
65378;SHT31;51982;51.042;13.806;2023-04-01T06:38:54;13.21;78.64
65378;SHT31;51982;51.042;13.806;2023-04-01T06:41:52;13.21;78.37
65378;SHT31;51982;51.042;13.806;2023-04-01T06:44:40;13.28;78.46
65378;SHT31;51982;51.042;13.806;2023-04-01T06:47:32;13.26;78.17
65378;SHT31;51982;51.042;13.806;2023-04-01T06:53:03;13.33;77.96
65378;SHT31;51982;51.042;13.806;2023-04-01T06:55:41;13.40;78.09
65378;SHT31;51982;51.042;13.806;2023-04-01T06:58:18;13.46;78.02
65378;SHT31;51982;51.042;13.806;2023-04-01T07:00:50;13.43;77.55
65378;SHT31;51982;51.042;13.806;2023-04-01T07:03:26;13.43;77.54
65378;SHT31;51982;51.042;13.806;2023-04-01T07:06:00;13.43;76.84
65378;SHT31;51982;51.042;13.806;2023-04-01T07:08:28;13.50;77.20
65378;SHT31;51982;51.042;13.806;2023-04-01T07:10:58;13.47;77.14
65378;SHT31;51982;51.042;13.806;2023-04-01T07:13:31;13.41;76.68
65378;SHT31;51982;51.042;13.806;2023-04-01T07:16:05;13.46;76.93
65378;SHT31;51982;51.042;13.806;2023-04-01T07:18:41;13.50;76.91
65378;SHT31;51982;51.042;13.806;2023-04-01T07:21:19;13.58;77.04
65378;SHT31;51982;51.042;13.806;2023-04-01T07:23:49;13.62;77.02
65378;SHT31;51982;51.042;13.806;2023-04-01T07:26:23;13.61;76.54
65378;SHT31;51982;51.042;13.806;2023-04-01T07:28:51;13.59;76.55
65378;SHT31;51982;51.042;13.806;2023-04-01T07:31:43;13.61;76.62
65378;SHT31;51982;51.042;13.806;2023-04-01T07:34:24;13.62;76.52
65378;SHT31;51982;51.042;13.806;2023-04-01T07:36:53;13.61;76.29
65378;SHT31;51982;51.042;13.806;2023-04-01T07:39:33;13.61;76.40
65378;SHT31;51982;51.042;13.806;2023-04-01T07:42:13;13.61;76.24
65378;SHT31;51982;51.042;13.806;2023-04-01T07:44:58;13.61;75.96
65378;SHT31;51982;51.042;13.806;2023-04-01T07:47:45;13.67;76.04
65378;SHT31;51982;51.042;13.806;2023-04-01T07:50:31;13.59;75.34
65378;SHT31;51982;51.042;13.806;2023-04-01T07:53:19;13.72;75.63
65378;SHT31;51982;51.042;13.806;2023-04-01T07:55:54;13.74;75.86
65378;SHT31;51982;51.042;13.806;2023-04-01T08:01:30;13.86;75.59
65378;SHT31;51982;51.042;13.806;2023-04-01T08:09:30;13.91;75.51
65378;SHT31;51982;51.042;13.806;2023-04-01T08:12:08;13.94;75.64
65378;SHT31;51982;51.042;13.806;2023-04-01T08:14:56;13.95;75.05
65378;SHT31;51982;51.042;13.806;2023-04-01T08:17:44;13.98;75.28
65378;SHT31;51982;51.042;13.806;2023-04-01T08:20:37;13.88;75.37
65378;SHT31;51982;51.042;13.806;2023-04-01T08:23:12;14.01;75.58
65378;SHT31;51982;51.042;13.806;2023-04-01T08:25:42;14.12;75.42
65378;SHT31;51982;51.042;13.806;2023-04-01T08:28:16;14.15;75.31
65378;SHT31;51982;51.042;13.806;2023-04-01T08:30:48;14.16;75.46
65378;SHT31;51982;51.042;13.806;2023-04-01T08:33:25;14.08;75.00
65378;SHT31;51982;51.042;13.806;2023-04-01T08:35:56;14.16;75.14
65378;SHT31;51982;51.042;13.806;2023-04-01T08:38:30;14.15;74.85
65378;SHT31;51982;51.042;13.806;2023-04-01T08:41:04;14.06;74.46
65378;SHT31;51982;51.042;13.806;2023-04-01T08:43:46;14.13;74.46
65378;SHT31;51982;51.042;13.806;2023-04-01T08:46:38;14.20;74.29
65378;SHT31;51982;51.042;13.806;2023-04-01T08:49:36;14.34;74.63
65378;SHT31;51982;51.042;13.806;2023-04-01T08:52:22;14.33;74.27
65378;SHT31;51982;51.042;13.806;2023-04-01T08:55:04;14.37;74.58
65378;SHT31;51982;51.042;13.806;2023-04-01T08:57:43;14.39;74.28
65378;SHT31;51982;51.042;13.806;2023-04-01T09:00:15;14.36;74.42
65378;SHT31;51982;51.042;13.806;2023-04-01T09:02:56;14.39;74.00
65378;SHT31;51982;51.042;13.806;2023-04-01T09:05:55;14.28;74.15
65378;SHT31;51982;51.042;13.806;2023-04-01T09:08:55;14.30;74.39
65378;SHT31;51982;51.042;13.806;2023-04-01T09:14:21;14.39;74.63
65378;SHT31;51982;51.042;13.806;2023-04-01T09:17:19;14.28;73.60
65378;SHT31;51982;51.042;13.806;2023-04-01T09:20:29;14.29;73.70
65378;SHT31;51982;51.042;13.806;2023-04-01T09:23:23;14.28;74.12
65378;SHT31;51982;51.042;13.806;2023-04-01T09:37:20;14.39;73.91
65378;SHT31;51982;51.042;13.806;2023-04-01T09:46:31;14.44;73.72
65378;SHT31;51982;51.042;13.806;2023-04-01T09:48:43;14.53;73.49
65378;SHT31;51982;51.042;13.806;2023-04-01T09:54:09;14.52;73.33
65378;SHT31;51982;51.042;13.806;2023-04-01T09:56:57;14.59;73.46
65378;SHT31;51982;51.042;13.806;2023-04-01T10:00:01;14.66;73.33
65378;SHT31;51982;51.042;13.806;2023-04-01T10:02:59;14.70;72.84
65378;SHT31;51982;51.042;13.806;2023-04-01T10:05:56;14.81;73.17
65378;SHT31;51982;51.042;13.806;2023-04-01T10:08:48;14.80;72.93
65378;SHT31;51982;51.042;13.806;2023-04-01T10:14:15;14.90;72.98
65378;SHT31;51982;51.042;13.806;2023-04-01T10:17:15;14.79;72.73
65378;SHT31;51982;51.042;13.806;2023-04-01T10:33:42;14.94;72.97
65378;SHT31;51982;51.042;13.806;2023-04-01T10:48:07;14.93;73.22
65378;SHT31;51982;51.042;13.806;2023-04-01T10:51:10;14.80;72.61
65378;SHT31;51982;51.042;13.806;2023-04-01T10:53:43;14.79;73.08
65378;SHT31;51982;51.042;13.806;2023-04-01T10:56:32;14.76;72.74
65378;SHT31;51982;51.042;13.806;2023-04-01T11:02:17;14.91;72.61
65378;SHT31;51982;51.042;13.806;2023-04-01T11:05:23;15.01;72.73
65378;SHT31;51982;51.042;13.806;2023-04-01T11:16:45;15.32;72.34
65378;SHT31;51982;51.042;13.806;2023-04-01T11:22:17;15.48;72.88
65378;SHT31;51982;51.042;13.806;2023-04-01T11:30:46;15.66;72.52
65378;SHT31;51982;51.042;13.806;2023-04-01T11:33:20;15.70;72.71
65378;SHT31;51982;51.042;13.806;2023-04-01T11:36:11;15.73;73.22
65378;SHT31;51982;51.042;13.806;2023-04-01T11:38:53;15.66;73.32
65378;SHT31;51982;51.042;13.806;2023-04-01T11:46:49;15.55;74.65
65378;SHT31;51982;51.042;13.806;2023-04-01T11:49:29;15.49;72.86
65378;SHT31;51982;51.042;13.806;2023-04-01T11:55:30;15.52;73.07
65378;SHT31;51982;51.042;13.806;2023-04-01T11:57:51;15.44;75.63
65378;SHT31;51982;51.042;13.806;2023-04-01T12:05:43;15.38;77.12
65378;SHT31;51982;51.042;13.806;2023-04-01T12:08:31;15.58;77.30
65378;SHT31;51982;51.042;13.806;2023-04-01T12:11:12;15.78;76.60
65378;SHT31;51982;51.042;13.806;2023-04-01T12:21:37;15.83;74.73
65378;SHT31;51982;51.042;13.806;2023-04-01T12:27:31;15.45;73.28
65378;SHT31;51982;51.042;13.806;2023-04-01T12:36:02;15.61;73.71
65378;SHT31;51982;51.042;13.806;2023-04-01T12:38:56;15.61;73.76
65378;SHT31;51982;51.042;13.806;2023-04-01T12:41:53;15.36;75.70
65378;SHT31;51982;51.042;13.806;2023-04-01T12:44:50;15.32;78.45
65378;SHT31;51982;51.042;13.806;2023-04-01T12:50:09;15.18;78.49
65378;SHT31;51982;51.042;13.806;2023-04-01T12:53:06;15.25;78.54
65378;SHT31;51982;51.042;13.806;2023-04-01T12:55:45;15.39;79.27
65378;SHT31;51982;51.042;13.806;2023-04-01T12:58:43;15.42;78.53
65378;SHT31;51982;51.042;13.806;2023-04-01T13:01:33;15.42;78.79
65378;SHT31;51982;51.042;13.806;2023-04-01T13:04:40;15.49;78.11
65378;SHT31;51982;51.042;13.806;2023-04-01T13:09:53;15.61;77.74
65378;SHT31;51982;51.042;13.806;2023-04-01T13:15:36;15.72;77.72
65378;SHT31;51982;51.042;13.806;2023-04-01T13:18:49;15.81;75.56
65378;SHT31;51982;51.042;13.806;2023-04-01T13:21:35;15.66;75.02
65378;SHT31;51982;51.042;13.806;2023-04-01T13:27:18;15.85;76.11
65378;SHT31;51982;51.042;13.806;2023-04-01T13:30:24;15.86;75.37
65378;SHT31;51982;51.042;13.806;2023-04-01T13:33:04;15.86;75.72
65378;SHT31;51982;51.042;13.806;2023-04-01T13:35:57;15.85;75.69
65378;SHT31;51982;51.042;13.806;2023-04-01T13:38:40;15.82;75.63
65378;SHT31;51982;51.042;13.806;2023-04-01T13:46:59;15.82;72.79
65378;SHT31;51982;51.042;13.806;2023-04-01T13:49:42;15.85;72.42
65378;SHT31;51982;51.042;13.806;2023-04-01T13:53:14;15.87;72.27
65378;SHT31;51982;51.042;13.806;2023-04-01T13:58:34;15.89;72.60
65378;SHT31;51982;51.042;13.806;2023-04-01T14:04:23;16.05;71.98
65378;SHT31;51982;51.042;13.806;2023-04-01T14:07:29;16.09;70.85
65378;SHT31;51982;51.042;13.806;2023-04-01T14:10:20;16.06;69.23
65378;SHT31;51982;51.042;13.806;2023-04-01T14:13:03;16.14;70.88
65378;SHT31;51982;51.042;13.806;2023-04-01T14:15:54;16.17;70.63
65378;SHT31;51982;51.042;13.806;2023-04-01T14:21:14;16.10;70.82
65378;SHT31;51982;51.042;13.806;2023-04-01T14:29:57;15.90;72.42
65378;SHT31;51982;51.042;13.806;2023-04-01T14:32:02;15.96;72.52
65378;SHT31;51982;51.042;13.806;2023-04-01T14:34:59;16.00;72.91
65378;SHT31;51982;51.042;13.806;2023-04-01T14:38:06;16.09;72.39
65378;SHT31;51982;51.042;13.806;2023-04-01T14:40:50;16.03;72.35
65378;SHT31;51982;51.042;13.806;2023-04-01T14:43:44;15.96;72.11
65378;SHT31;51982;51.042;13.806;2023-04-01T14:49:24;16.05;72.44
65378;SHT31;51982;51.042;13.806;2023-04-01T14:51:55;16.05;72.17
65378;SHT31;51982;51.042;13.806;2023-04-01T14:54:36;16.06;72.38
65378;SHT31;51982;51.042;13.806;2023-04-01T14:57:14;16.02;72.00
65378;SHT31;51982;51.042;13.806;2023-04-01T15:00:05;15.87;71.80
65378;SHT31;51982;51.042;13.806;2023-04-01T15:02:46;15.75;72.41
65378;SHT31;51982;51.042;13.806;2023-04-01T15:05:27;15.59;72.46
65378;SHT31;51982;51.042;13.806;2023-04-01T15:08:00;15.62;72.36
65378;SHT31;51982;51.042;13.806;2023-04-01T15:10:58;15.67;71.56
65378;SHT31;51982;51.042;13.806;2023-04-01T15:16:25;15.86;70.67
65378;SHT31;51982;51.042;13.806;2023-04-01T15:19:05;15.85;69.63
65378;SHT31;51982;51.042;13.806;2023-04-01T15:24:44;15.87;69.03
65378;SHT31;51982;51.042;13.806;2023-04-01T15:32:56;15.99;69.55
65378;SHT31;51982;51.042;13.806;2023-04-01T15:43:43;15.97;69.88
65378;SHT31;51982;51.042;13.806;2023-04-01T15:46:18;15.87;70.23
65378;SHT31;51982;51.042;13.806;2023-04-01T15:49:03;15.76;70.49
65378;SHT31;51982;51.042;13.806;2023-04-01T15:52:03;15.73;70.53
65378;SHT31;51982;51.042;13.806;2023-04-01T15:54:48;15.55;71.06
65378;SHT31;51982;51.042;13.806;2023-04-01T15:57:32;15.61;71.42
65378;SHT31;51982;51.042;13.806;2023-04-01T16:00:10;15.48;71.62
65378;SHT31;51982;51.042;13.806;2023-04-01T16:02:44;15.42;72.05
65378;SHT31;51982;51.042;13.806;2023-04-01T16:05:32;15.36;72.29
65378;SHT31;51982;51.042;13.806;2023-04-01T16:10:47;15.42;72.54
65378;SHT31;51982;51.042;13.806;2023-04-01T16:13:30;15.36;72.71
65378;SHT31;51982;51.042;13.806;2023-04-01T16:16:14;15.42;72.87
65378;SHT31;51982;51.042;13.806;2023-04-01T16:19:02;15.44;72.27
65378;SHT31;51982;51.042;13.806;2023-04-01T16:22:05;15.46;72.04
65378;SHT31;51982;51.042;13.806;2023-04-01T16:24:35;15.38;71.84
65378;SHT31;51982;51.042;13.806;2023-04-01T16:27:24;15.35;72.00
65378;SHT31;51982;51.042;13.806;2023-04-01T16:30:00;15.32;71.88
65378;SHT31;51982;51.042;13.806;2023-04-01T16:32:51;15.32;71.45
65378;SHT31;51982;51.042;13.806;2023-04-01T16:35:35;15.35;71.27
65378;SHT31;51982;51.042;13.806;2023-04-01T16:39:09;15.20;71.22
65378;SHT31;51982;51.042;13.806;2023-04-01T16:41:16;15.20;71.62
65378;SHT31;51982;51.042;13.806;2023-04-01T16:43:49;15.20;71.82
65378;SHT31;51982;51.042;13.806;2023-04-01T16:46:38;15.05;71.71
65378;SHT31;51982;51.042;13.806;2023-04-01T16:51:44;15.12;72.28
65378;SHT31;51982;51.042;13.806;2023-04-01T16:54:29;15.11;72.58
65378;SHT31;51982;51.042;13.806;2023-04-01T16:57:12;15.14;72.89
65378;SHT31;51982;51.042;13.806;2023-04-01T16:59:47;15.20;73.09
65378;SHT31;51982;51.042;13.806;2023-04-01T17:02:24;15.21;73.55
65378;SHT31;51982;51.042;13.806;2023-04-01T17:05:00;15.27;74.06
65378;SHT31;51982;51.042;13.806;2023-04-01T17:16:12;15.07;75.04
65378;SHT31;51982;51.042;13.806;2023-04-01T17:21:47;15.01;75.70
65378;SHT31;51982;51.042;13.806;2023-04-01T17:24:38;14.93;75.81
65378;SHT31;51982;51.042;13.806;2023-04-01T17:27:43;14.95;76.11
65378;SHT31;51982;51.042;13.806;2023-04-01T17:33:17;14.97;76.96
65378;SHT31;51982;51.042;13.806;2023-04-01T17:36:05;14.98;77.91
65378;SHT31;51982;51.042;13.806;2023-04-01T17:41:45;14.97;78.37
65378;SHT31;51982;51.042;13.806;2023-04-01T17:44:31;15.00;78.92
65378;SHT31;51982;51.042;13.806;2023-04-01T17:49:59;14.98;78.96
65378;SHT31;51982;51.042;13.806;2023-04-01T17:52:45;15.00;79.32
65378;SHT31;51982;51.042;13.806;2023-04-01T17:58:58;14.91;79.88
65378;SHT31;51982;51.042;13.806;2023-04-01T18:01:48;14.83;79.98
65378;SHT31;51982;51.042;13.806;2023-04-01T18:04:30;14.83;79.86
65378;SHT31;51982;51.042;13.806;2023-04-01T18:07:16;14.77;79.97
65378;SHT31;51982;51.042;13.806;2023-04-01T18:09:57;14.74;80.08
65378;SHT31;51982;51.042;13.806;2023-04-01T18:12:48;14.71;79.97
65378;SHT31;51982;51.042;13.806;2023-04-01T18:15:24;14.64;80.21
65378;SHT31;51982;51.042;13.806;2023-04-01T18:18:00;14.59;80.45
65378;SHT31;51982;51.042;13.806;2023-04-01T18:25:44;14.61;80.62
65378;SHT31;51982;51.042;13.806;2023-04-01T18:33:44;14.57;80.76
65378;SHT31;51982;51.042;13.806;2023-04-01T18:36:21;14.53;80.71
65378;SHT31;51982;51.042;13.806;2023-04-01T18:38:55;14.55;80.52
65378;SHT31;51982;51.042;13.806;2023-04-01T18:41:41;14.57;80.78
65378;SHT31;51982;51.042;13.806;2023-04-01T18:44:34;14.52;80.78
65378;SHT31;51982;51.042;13.806;2023-04-01T18:47:22;14.46;80.83
65378;SHT31;51982;51.042;13.806;2023-04-01T18:50:15;14.39;81.14
65378;SHT31;51982;51.042;13.806;2023-04-01T18:52:44;14.40;81.06
65378;SHT31;51982;51.042;13.806;2023-04-01T18:55:37;14.37;81.36
65378;SHT31;51982;51.042;13.806;2023-04-01T19:00:48;14.34;81.27
65378;SHT31;51982;51.042;13.806;2023-04-01T19:03:34;14.28;81.47
65378;SHT31;51982;51.042;13.806;2023-04-01T19:06:15;14.23;81.71
65378;SHT31;51982;51.042;13.806;2023-04-01T19:08:44;14.20;82.02
65378;SHT31;51982;51.042;13.806;2023-04-01T19:11:23;14.15;82.21
65378;SHT31;51982;51.042;13.806;2023-04-01T19:17:32;14.10;82.40
65378;SHT31;51982;51.042;13.806;2023-04-01T19:23:27;14.13;81.65
65378;SHT31;51982;51.042;13.806;2023-04-01T19:25:55;14.10;81.70
65378;SHT31;51982;51.042;13.806;2023-04-01T19:28:43;14.09;81.86
65378;SHT31;51982;51.042;13.806;2023-04-01T19:31:35;14.01;82.24
65378;SHT31;51982;51.042;13.806;2023-04-01T19:34:28;13.99;82.35
65378;SHT31;51982;51.042;13.806;2023-04-01T19:37:08;13.98;82.31
65378;SHT31;51982;51.042;13.806;2023-04-01T19:42:38;13.99;82.15
65378;SHT31;51982;51.042;13.806;2023-04-01T19:48:02;13.97;82.35
65378;SHT31;51982;51.042;13.806;2023-04-01T19:50:34;13.94;82.54
65378;SHT31;51982;51.042;13.806;2023-04-01T19:53:15;13.92;82.46
65378;SHT31;51982;51.042;13.806;2023-04-01T19:58:18;13.88;82.65
65378;SHT31;51982;51.042;13.806;2023-04-01T20:00:58;13.81;82.86
65378;SHT31;51982;51.042;13.806;2023-04-01T20:03:44;13.81;82.91
65378;SHT31;51982;51.042;13.806;2023-04-01T20:15:36;13.88;83.18
65378;SHT31;51982;51.042;13.806;2023-04-01T20:18:14;13.89;82.93
65378;SHT31;51982;51.042;13.806;2023-04-01T20:20:41;13.89;83.15
65378;SHT31;51982;51.042;13.806;2023-04-01T20:23:30;13.88;82.97
65378;SHT31;51982;51.042;13.806;2023-04-01T20:26:03;13.91;82.98
65378;SHT31;51982;51.042;13.806;2023-04-01T20:28:42;13.88;82.94
65378;SHT31;51982;51.042;13.806;2023-04-01T20:31:17;13.89;82.83
65378;SHT31;51982;51.042;13.806;2023-04-01T20:34:15;13.86;82.88
65378;SHT31;51982;51.042;13.806;2023-04-01T20:37:07;13.89;82.92
65378;SHT31;51982;51.042;13.806;2023-04-01T20:40:01;13.92;82.91
65378;SHT31;51982;51.042;13.806;2023-04-01T20:45:44;13.89;83.02
65378;SHT31;51982;51.042;13.806;2023-04-01T20:48:37;13.92;83.06
65378;SHT31;51982;51.042;13.806;2023-04-01T20:51:07;13.89;83.09
65378;SHT31;51982;51.042;13.806;2023-04-01T20:53:42;13.94;83.22
65378;SHT31;51982;51.042;13.806;2023-04-01T20:58:51;13.95;83.63
65378;SHT31;51982;51.042;13.806;2023-04-01T21:07:10;13.94;83.90
65378;SHT31;51982;51.042;13.806;2023-04-01T21:10:00;13.94;84.24
65378;SHT31;51982;51.042;13.806;2023-04-01T21:13:01;13.95;84.22
65378;SHT31;51982;51.042;13.806;2023-04-01T21:15:37;13.95;84.53
65378;SHT31;51982;51.042;13.806;2023-04-01T21:21:05;13.97;85.29
65378;SHT31;51982;51.042;13.806;2023-04-01T21:29:47;13.82;85.81
65378;SHT31;51982;51.042;13.806;2023-04-01T21:35:03;13.75;86.18
65378;SHT31;51982;51.042;13.806;2023-04-01T21:43:09;13.72;86.47
65378;SHT31;51982;51.042;13.806;2023-04-01T21:51:40;13.71;86.54
65378;SHT31;51982;51.042;13.806;2023-04-01T21:57:18;13.51;86.19